Healdton, OK (73438)

10:55 AM CDT on August 04, 2015 (GMT -0500)
Carter County Dist 2 | | Change Station
CLOSE
Current Station
Personal Weather Station
Location: Healdton, OK
Elevation: 933 ft
Nearby Weather Stations

Elev 933 ft 34.25 °N, 97.50 °W | Updated 12 minutes ago

Rain
Rain
72.6 °F
Feels Like 72.6 °F
N
0.0
Wind Variable Wind from WNW
Gusts 4.0 mph

Today
High -- | Low -- °F
--% Chance of Precip.
Yesterday
High -- | Low -- °F
Precip. -- in
6:42 AM 8:28 PM
Waning Gibbous, 76% visible
Pressure 30.01 in
Visibility 10.0 miles
Clouds Overcast 9500 ft
Dew Point 71 °F
Humidity 94%
Rainfall 0.15 in
Snow Depth Not available.
UV 2 out of 12
Pollen 5.10 out of 12
Air Quality Not available.
Flu Activity Not available.
METAR K1F0 041530Z AUTO 03004KT 10SM OVC095 23/21 A3001 RMK AO2

More Conditions Fewer Conditions

Pressure 30.01 in
Visibility 10.0 miles
Clouds Overcast 9500 ft
Dew Point 71 °F
Humidity 94%
Rainfall 0.15 in
Snow Depth Not available.
UV 2 out of 12
Pollen 5.10 out of 12
Air Quality Not available.
Flu Activity Not available.
METAR K1F0 041530Z AUTO 03004KT 10SM OVC095 23/21 A3001 RMK AO2

More Conditions Fewer Conditions

10-Day Weather Forecast

×

Almanac

Astronomy

Aug. 04, 2015 Rise Set
Actual Time
Civil Twilight
Nautical Twilight
Astronomical Twilight
Moon
Length of Visible Light
Length of Day
Tomorrow will be .
, % of the Moon is Illuminated

Today's Extremes

State Highs State Lows

Community

WunderPhotos

Upload Photos

1,843,909 photos uploaded!

WunderBlogs® & News

Nearby

Air Quality

  Air Quality AQ Index Pollutant
Not available.

Snow Depth

Station Depth Elevation

Earthquake Activity

City Distance Mag. Time & Date
Minimum magnitude displayed is 2.5.

Coastal Water Temperatures

Place Temperature

Stations

Nearby Weather Stations

Station Location Temp. Windchill Dew Point Humidity Wind Precip. Elev Updated Type